createdAt,value
2022-07-29T00:00:06.781Z,4.78
2022-07-29T00:02:09.566Z,5.47
2022-07-29T00:04:12.757Z,4.38
2022-07-29T00:06:16.646Z,4.30
2022-07-29T00:08:19.248Z,4.82
2022-07-29T00:10:22.269Z,5.22
2022-07-29T00:12:27.059Z,4.38
2022-07-29T00:14:30.382Z,4.70
2022-07-29T00:16:32.999Z,5.18
2022-07-29T00:18:35.627Z,4.72
2022-07-29T00:20:38.222Z,5.55
2022-07-29T00:22:41.233Z,5.47
2022-07-29T00:24:43.771Z,4.82
2022-07-29T00:26:46.734Z,5.15
2022-07-29T00:28:49.332Z,5.15
2022-07-29T00:30:51.901Z,5.00
2022-07-29T00:32:54.524Z,5.30
2022-07-29T00:35:15.641Z,4.47
2022-07-29T00:37:18.244Z,5.13
2022-07-29T00:39:20.806Z,5.28
2022-07-29T00:41:23.405Z,4.93
2022-07-29T00:43:26.196Z,4.55
2022-07-29T00:45:29.065Z,4.78
2022-07-29T00:47:31.691Z,4.65
2022-07-29T00:49:35.294Z,5.32
2022-07-29T00:51:38.909Z,4.80
2022-07-29T00:53:42.906Z,5.30
2022-07-29T00:55:45.634Z,4.93
2022-07-29T00:57:48.558Z,5.53
2022-07-29T00:59:51.144Z,4.97
2022-07-29T01:01:54.451Z,5.53
2022-07-29T01:03:57.206Z,4.63
2022-07-29T01:06:00.977Z,5.05
2022-07-29T01:08:04.419Z,5.45
2022-07-29T01:10:10.705Z,5.00
2022-07-29T01:12:22.742Z,5.35
2022-07-29T01:14:25.560Z,4.93
2022-07-29T01:17:04.174Z,4.78
2022-07-29T01:20:01.127Z,5.47
2022-07-29T01:22:34.954Z,5.00
2022-07-29T01:27:09.957Z,5.53
2022-07-29T01:29:29.761Z,4.63
2022-07-29T01:32:00.537Z,4.57
2022-07-29T01:34:09.787Z,4.72
2022-07-29T01:36:17.645Z,4.70
2022-07-29T01:38:26.373Z,4.63
2022-07-29T01:40:36.407Z,4.80
2022-07-29T01:42:48.991Z,4.50
2022-07-29T01:45:00.413Z,5.43
2022-07-29T01:49:16.500Z,4.45
2022-07-29T01:51:28.466Z,4.45
2022-07-29T01:53:37.670Z,4.18
2022-07-29T01:55:45.703Z,4.47
2022-07-29T01:57:50.129Z,4.85
2022-07-29T01:59:54.591Z,4.90
2022-07-29T02:01:59.908Z,4.25
2022-07-29T02:04:08.979Z,4.68
2022-07-29T02:06:13.628Z,4.22
2022-07-29T02:08:18.171Z,4.32
2022-07-29T02:10:25.779Z,4.85
2022-07-29T02:12:32.301Z,4.07
2022-07-29T02:14:57.519Z,4.00
2022-07-29T02:17:03.194Z,4.47
2022-07-29T02:19:07.960Z,4.28
2022-07-29T02:21:15.818Z,4.40
2022-07-29T02:23:23.009Z,4.85
2022-07-29T02:25:37.452Z,4.63
2022-07-29T02:27:42.418Z,4.13
2022-07-29T02:29:47.347Z,5.07
2022-07-29T02:31:52.066Z,4.13
2022-07-29T02:33:56.008Z,4.32
2022-07-29T02:36:00.651Z,4.40
2022-07-29T02:38:22.939Z,3.53
2022-07-29T02:40:25.624Z,4.43
2022-07-29T02:42:29.508Z,4.03
2022-07-29T02:44:34.898Z,4.03
2022-07-29T02:46:42.708Z,3.80
2022-07-29T02:49:05.621Z,4.43
2022-07-29T02:51:44.162Z,4.10
2022-07-29T02:53:39.703Z,3.83
2022-07-29T02:55:46.896Z,4.50
2022-07-29T02:57:59.202Z,4.38
2022-07-29T03:00:07.065Z,3.83
2022-07-29T03:02:11.067Z,4.05
2022-07-29T03:04:16.572Z,4.63
2022-07-29T03:06:37.471Z,4.18
2022-07-29T03:08:41.486Z,4.30
2022-07-29T03:10:48.341Z,3.65
2022-07-29T03:12:51.285Z,4.28
2022-07-29T03:14:55.158Z,4.25
2022-07-29T03:16:58.554Z,4.35
2022-07-29T03:19:02.631Z,4.15
2022-07-29T03:21:05.587Z,4.50
2022-07-29T03:23:09.762Z,4.80
2022-07-29T03:25:13.120Z,3.70
2022-07-29T03:27:15.846Z,5.10
2022-07-29T03:29:18.434Z,5.22
2022-07-29T03:31:22.642Z,3.55
2022-07-29T03:33:25.476Z,4.10
2022-07-29T03:35:28.184Z,4.30
2022-07-29T03:37:31.756Z,3.85
2022-07-29T03:39:41.847Z,4.38
2022-07-29T03:41:46.935Z,4.15
2022-07-29T03:43:52.835Z,3.85
2022-07-29T03:45:58.585Z,4.20
2022-07-29T03:48:11.311Z,3.70
2022-07-29T03:50:16.515Z,4.10
2022-07-29T03:52:19.428Z,4.00
2022-07-29T03:54:22.198Z,4.13
2022-07-29T03:56:25.840Z,3.83
2022-07-29T03:58:31.572Z,5.15
2022-07-29T04:00:36.694Z,3.63
2022-07-29T04:02:41.188Z,4.20
2022-07-29T04:04:43.813Z,4.45
2022-07-29T04:06:48.243Z,4.38
2022-07-29T04:08:51.076Z,3.75
2022-07-29T04:10:53.676Z,4.20
2022-07-29T04:12:56.235Z,3.75
2022-07-29T04:14:58.746Z,3.85
2022-07-29T04:17:03.111Z,3.83
2022-07-29T04:19:05.671Z,3.58
2022-07-29T04:21:08.175Z,3.30
2022-07-29T04:23:10.683Z,3.67
2022-07-29T04:25:13.271Z,4.07
2022-07-29T04:27:15.835Z,3.80
2022-07-29T04:29:18.486Z,3.88
2022-07-29T04:31:25.593Z,3.38
2022-07-29T04:33:28.570Z,4.20
2022-07-29T04:35:38.664Z,4.15
2022-07-29T04:37:50.872Z,3.42
2022-07-29T04:39:53.379Z,3.50
2022-07-29T04:41:56.396Z,3.85
2022-07-29T04:43:59.134Z,3.83
2022-07-29T04:46:03.981Z,4.32
2022-07-29T04:48:06.810Z,3.58
2022-07-29T04:50:10.848Z,4.00
2022-07-29T04:52:13.522Z,3.33
2022-07-29T04:54:16.216Z,3.72
2022-07-29T04:56:19.063Z,3.00
2022-07-29T04:58:21.705Z,4.13
2022-07-29T05:00:29.194Z,4.65
2022-07-29T05:02:36.071Z,4.30
2022-07-29T05:04:38.602Z,3.50
2022-07-29T05:06:41.095Z,3.90
2022-07-29T05:08:43.640Z,3.17
2022-07-29T05:10:46.467Z,3.50
2022-07-29T05:12:49.063Z,2.83
2022-07-29T05:14:51.632Z,3.65
2022-07-29T05:16:57.743Z,3.53
2022-07-29T05:19:00.472Z,3.83
2022-07-29T05:21:03.079Z,3.70
2022-07-29T05:23:05.634Z,2.83
2022-07-29T05:25:10.193Z,3.17
2022-07-29T05:27:13.792Z,3.00
2022-07-29T05:29:43.346Z,3.88
2022-07-29T05:31:39.261Z,3.53
2022-07-29T05:33:42.498Z,3.10
2022-07-29T05:35:45.095Z,3.67
2022-07-29T05:37:47.640Z,3.65
2022-07-29T05:39:56.279Z,3.47
2022-07-29T05:41:59.894Z,3.30
2022-07-29T05:44:02.600Z,3.55
2022-07-29T05:46:05.139Z,3.53
2022-07-29T05:48:07.675Z,3.25
2022-07-29T05:50:11.237Z,3.60
2022-07-29T05:52:14.457Z,3.63
2022-07-29T05:54:17.338Z,3.95
2022-07-29T05:56:20.233Z,3.30
2022-07-29T05:58:22.785Z,3.83
2022-07-29T06:00:25.364Z,3.67
2022-07-29T06:02:28.199Z,3.47
2022-07-29T06:04:30.942Z,3.60
2022-07-29T06:06:34.824Z,3.90
2022-07-29T06:08:37.532Z,2.95
2022-07-29T06:10:40.162Z,2.90
2022-07-29T06:12:42.742Z,3.00
2022-07-29T06:14:45.242Z,3.45
2022-07-29T06:16:47.949Z,3.47
2022-07-29T06:18:50.514Z,3.47
2022-07-29T06:20:53.235Z,4.15
2022-07-29T06:22:55.855Z,3.65
2022-07-29T06:24:58.393Z,3.25
2022-07-29T06:27:00.936Z,3.53
2022-07-29T06:29:03.583Z,3.20
2022-07-29T06:31:06.663Z,3.22
2022-07-29T06:33:18.145Z,4.40
2022-07-29T06:35:41.350Z,4.13
2022-07-29T06:37:43.240Z,3.38
2022-07-29T06:39:45.816Z,3.22
2022-07-29T06:41:52.769Z,3.42
2022-07-29T06:43:56.788Z,3.67
2022-07-29T06:46:02.549Z,4.07
2022-07-29T06:48:05.620Z,2.78
2022-07-29T06:50:09.361Z,3.28
2022-07-29T06:52:11.971Z,4.00
2022-07-29T06:54:14.810Z,3.75
2022-07-29T06:56:17.549Z,3.25
2022-07-29T06:58:21.606Z,3.83
2022-07-29T07:00:24.264Z,3.85
2022-07-29T07:02:27.154Z,3.85
2022-07-29T07:04:30.686Z,3.55
2022-07-29T07:06:33.654Z,4.03
2022-07-29T07:08:36.169Z,3.60
2022-07-29T07:10:38.949Z,3.83
2022-07-29T07:12:41.562Z,3.63
2022-07-29T07:14:44.168Z,4.25
2022-07-29T07:16:46.800Z,4.53
2022-07-29T07:18:50.589Z,4.35
2022-07-29T07:20:53.154Z,3.60
2022-07-29T07:22:55.993Z,3.92
2022-07-29T07:24:58.539Z,4.07
2022-07-29T07:27:01.147Z,3.95
2022-07-29T07:29:03.853Z,3.90
2022-07-29T07:31:06.624Z,4.15
2022-07-29T07:33:09.258Z,3.67
2022-07-29T07:35:12.652Z,3.25
2022-07-29T07:37:15.862Z,3.80
2022-07-29T07:39:18.418Z,3.67
2022-07-29T07:41:21.547Z,3.50
2022-07-29T07:43:24.442Z,3.80
2022-07-29T07:45:28.315Z,3.78
2022-07-29T07:47:30.956Z,3.72
2022-07-29T07:49:36.713Z,3.90
2022-07-29T07:51:39.825Z,4.00
2022-07-29T07:53:42.348Z,3.50
2022-07-29T07:56:09.308Z,3.55
2022-07-29T07:58:07.780Z,4.03
2022-07-29T08:00:10.784Z,3.58
2022-07-29T08:02:13.426Z,3.42
2022-07-29T08:04:16.296Z,3.67
2022-07-29T08:06:19.417Z,3.40
2022-07-29T08:08:22.098Z,3.92
2022-07-29T08:10:44.099Z,3.00
2022-07-29T08:12:46.674Z,3.40
2022-07-29T08:14:49.242Z,3.22
2022-07-29T08:16:52.594Z,3.42
2022-07-29T08:18:58.095Z,3.72
2022-07-29T08:21:00.775Z,3.67
2022-07-29T08:23:05.492Z,3.47
2022-07-29T08:25:08.461Z,3.55
2022-07-29T08:27:33.503Z,3.38
2022-07-29T08:29:35.243Z,3.88
2022-07-29T08:31:42.027Z,3.45
2022-07-29T08:33:44.972Z,3.33
2022-07-29T08:35:47.684Z,3.00
2022-07-29T08:37:50.536Z,3.70
2022-07-29T08:39:53.152Z,2.97
2022-07-29T08:41:57.440Z,4.25
2022-07-29T08:44:05.304Z,3.17
2022-07-29T08:46:08.044Z,3.58
2022-07-29T08:48:10.696Z,3.65
2022-07-29T08:50:13.343Z,3.63
2022-07-29T08:52:17.268Z,3.35
2022-07-29T08:54:21.259Z,3.25
2022-07-29T08:56:24.588Z,3.55
2022-07-29T08:58:28.723Z,3.83
2022-07-29T09:00:32.068Z,3.85
2022-07-29T09:02:40.434Z,3.60
2022-07-29T09:04:43.201Z,3.30
2022-07-29T09:06:49.387Z,3.80
2022-07-29T09:08:52.135Z,3.55
2022-07-29T09:10:56.806Z,3.85
2022-07-29T09:12:59.579Z,3.28
2022-07-29T09:15:02.263Z,3.45
2022-07-29T09:17:07.867Z,4.15
2022-07-29T09:19:29.786Z,3.67
2022-07-29T09:22:00.205Z,3.67
2022-07-29T09:24:11.916Z,3.00
2022-07-29T09:26:14.585Z,3.20
2022-07-29T09:28:18.902Z,3.88
2022-07-29T09:30:31.730Z,4.28
2022-07-29T09:32:54.744Z,3.70
2022-07-29T09:35:20.147Z,3.97
2022-07-29T09:37:29.736Z,3.70
2022-07-29T09:39:35.072Z,3.60
2022-07-29T09:41:55.771Z,4.00
2022-07-29T09:43:59.926Z,4.68
2022-07-29T09:46:15.236Z,3.45
2022-07-29T09:48:23.593Z,3.50
2022-07-29T09:50:43.157Z,3.85
2022-07-29T09:52:50.482Z,3.45
2022-07-29T09:54:55.140Z,3.72
2022-07-29T09:56:58.110Z,3.45
2022-07-29T09:59:07.695Z,3.65
2022-07-29T10:01:10.647Z,3.45
2022-07-29T10:03:14.935Z,3.78
2022-07-29T10:05:36.591Z,3.30
2022-07-29T10:07:53.617Z,3.00
2022-07-29T10:09:58.684Z,3.05
2022-07-29T10:12:17.512Z,3.90
2022-07-29T10:14:20.218Z,3.65
2022-07-29T10:16:22.900Z,3.63
2022-07-29T10:18:25.643Z,3.63
2022-07-29T10:20:29.315Z,4.53
2022-07-29T10:22:52.553Z,3.78
2022-07-29T10:24:56.251Z,3.70
2022-07-29T10:27:01.904Z,3.70
2022-07-29T10:29:04.603Z,4.07
2022-07-29T10:31:09.633Z,3.60
2022-07-29T10:33:58.351Z,3.50
2022-07-29T10:36:22.553Z,3.42
2022-07-29T10:38:32.165Z,3.83
2022-07-29T10:41:06.772Z,3.55
2022-07-29T10:43:24.063Z,3.30
2022-07-29T10:45:27.950Z,3.53
2022-07-29T10:47:31.222Z,4.00
2022-07-29T10:49:33.848Z,3.72
2022-07-29T10:51:51.453Z,3.90
2022-07-29T10:53:54.407Z,3.45
2022-07-29T10:55:57.937Z,3.80
2022-07-29T10:58:29.366Z,3.30
2022-07-29T11:00:33.142Z,3.50
2022-07-29T11:02:41.893Z,3.88
2022-07-29T11:04:47.105Z,3.80
2022-07-29T11:07:06.370Z,3.55
2022-07-29T11:09:35.115Z,3.58
2022-07-29T11:11:43.745Z,3.30
2022-07-29T11:13:53.354Z,3.00
2022-07-29T11:15:58.959Z,4.00
2022-07-29T11:18:04.347Z,3.33
2022-07-29T11:20:31.606Z,3.03
2022-07-29T11:22:37.000Z,3.88
2022-07-29T11:24:50.427Z,3.08
2022-07-29T11:27:13.246Z,3.72
2022-07-29T11:29:25.956Z,4.32
2022-07-29T11:31:34.339Z,4.03
2022-07-29T11:33:54.413Z,3.20
2022-07-29T11:36:16.597Z,4.03
2022-07-29T11:38:31.741Z,3.72
2022-07-29T11:40:35.050Z,3.75
2022-07-29T11:42:44.532Z,2.95
2022-07-29T11:45:41.354Z,3.38
2022-07-29T11:47:30.608Z,3.08
2022-07-29T11:51:55.643Z,3.70
2022-07-29T11:54:04.266Z,3.17
2022-07-29T11:56:10.561Z,3.03
2022-07-29T12:00:49.186Z,3.50
2022-07-29T12:02:53.423Z,3.58
2022-07-29T12:04:58.039Z,4.20
2022-07-29T12:07:00.814Z,3.92
2022-07-29T12:09:11.227Z,3.53
2022-07-29T12:11:23.217Z,3.47
2022-07-29T12:13:39.285Z,3.60
2022-07-29T12:15:47.258Z,3.83
2022-07-29T12:17:50.243Z,3.38
2022-07-29T12:19:55.471Z,3.40
2022-07-29T12:22:01.152Z,3.35
2022-07-29T12:24:09.232Z,3.33
2022-07-29T12:26:25.600Z,4.22
2022-07-29T12:28:28.710Z,4.10
2022-07-29T12:30:40.193Z,3.50
2022-07-29T12:32:48.055Z,3.42
2022-07-29T12:34:51.845Z,3.80
2022-07-29T12:36:54.660Z,3.35
2022-07-29T12:38:57.465Z,3.45
2022-07-29T12:41:00.200Z,3.47
2022-07-29T12:43:10.605Z,3.47
2022-07-29T12:45:13.248Z,3.35
2022-07-29T12:47:17.331Z,3.20
2022-07-29T12:49:24.108Z,3.40
2022-07-29T12:51:30.446Z,3.50
2022-07-29T12:53:33.132Z,3.05
2022-07-29T12:55:46.284Z,3.35
2022-07-29T12:57:51.780Z,3.72
2022-07-29T13:00:01.539Z,3.22
2022-07-29T13:02:07.868Z,3.58
2022-07-29T13:04:10.570Z,3.60
2022-07-29T13:06:49.611Z,4.25
2022-07-29T13:09:01.329Z,4.00
2022-07-29T13:11:03.941Z,3.63
2022-07-29T13:13:07.648Z,3.47
2022-07-29T13:15:17.332Z,3.20
2022-07-29T13:17:24.098Z,3.42
2022-07-29T13:19:34.553Z,3.17
2022-07-29T13:21:38.668Z,3.10
2022-07-29T13:23:41.992Z,3.85
2022-07-29T13:25:44.793Z,3.38
2022-07-29T13:27:47.549Z,3.67
2022-07-29T13:29:52.432Z,3.50
2022-07-29T13:31:55.628Z,3.33
2022-07-29T13:33:58.431Z,3.50
2022-07-29T13:36:02.101Z,3.85
2022-07-29T13:38:04.615Z,3.67
2022-07-29T13:40:09.119Z,3.63
2022-07-29T13:42:14.301Z,4.22
2022-07-29T13:44:16.930Z,3.95
2022-07-29T13:46:19.592Z,3.63
2022-07-29T13:48:22.217Z,4.03
2022-07-29T13:50:26.362Z,4.38
2022-07-29T13:52:29.145Z,3.92
2022-07-29T13:54:31.757Z,4.50
2022-07-29T13:56:35.232Z,3.92
2022-07-29T13:58:38.098Z,4.00
2022-07-29T14:00:40.670Z,3.13
2022-07-29T14:02:43.856Z,3.85
2022-07-29T14:04:46.604Z,4.15
2022-07-29T14:06:49.273Z,5.10
2022-07-29T14:08:51.904Z,4.03
2022-07-29T14:10:54.472Z,4.32
2022-07-29T14:12:57.032Z,4.43
2022-07-29T14:14:59.616Z,4.45
2022-07-29T14:17:04.338Z,3.65
2022-07-29T14:19:07.058Z,4.18
2022-07-29T14:21:10.092Z,5.10
2022-07-29T14:23:12.998Z,4.22
2022-07-29T14:25:19.326Z,4.90
2022-07-29T14:27:37.763Z,4.57
2022-07-29T14:29:41.171Z,5.40
2022-07-29T14:31:49.667Z,4.53
2022-07-29T14:33:52.602Z,4.78
2022-07-29T14:35:55.236Z,4.40
2022-07-29T14:38:03.873Z,4.47
2022-07-29T14:40:26.891Z,5.05
2022-07-29T14:42:29.623Z,5.80
2022-07-29T14:44:32.461Z,4.50
2022-07-29T14:46:35.344Z,5.38
2022-07-29T14:48:38.205Z,4.57
2022-07-29T14:50:40.823Z,4.97
2022-07-29T14:52:44.080Z,4.28
2022-07-29T14:54:46.695Z,4.90
2022-07-29T14:56:50.530Z,5.07
2022-07-29T14:58:53.140Z,5.10
2022-07-29T15:00:56.151Z,4.78
2022-07-29T15:03:02.427Z,4.75
2022-07-29T15:05:06.244Z,4.78
2022-07-29T15:07:09.607Z,3.95
2022-07-29T15:09:12.286Z,4.70
2022-07-29T15:11:14.904Z,5.25
2022-07-29T15:13:17.527Z,4.95
2022-07-29T15:15:20.645Z,5.45
2022-07-29T15:17:23.345Z,6.00
2022-07-29T15:19:27.140Z,6.68
2022-07-29T15:21:29.818Z,4.80
2022-07-29T15:23:32.399Z,5.05
2022-07-29T15:25:37.440Z,5.13
2022-07-29T15:27:40.063Z,5.47
2022-07-29T15:29:43.822Z,5.20
2022-07-29T15:31:46.561Z,5.55
2022-07-29T15:33:49.480Z,5.65
2022-07-29T15:35:52.236Z,5.88
2022-07-29T15:37:54.862Z,4.80
2022-07-29T15:40:00.122Z,4.90
2022-07-29T15:42:03.817Z,4.72
2022-07-29T15:44:06.517Z,4.18
2022-07-29T15:46:27.620Z,6.22
2022-07-29T15:50:33.048Z,6.95
2022-07-29T15:52:35.714Z,7.18
2022-07-29T15:54:41.461Z,7.28
2022-07-29T15:56:45.949Z,7.13
2022-07-29T15:58:48.899Z,7.43
2022-07-29T16:00:51.483Z,6.43
2022-07-29T16:02:54.066Z,5.88
2022-07-29T16:04:56.669Z,7.35
2022-07-29T16:06:59.615Z,7.38
2022-07-29T16:09:03.134Z,6.93
2022-07-29T16:11:05.742Z,9.57
2022-07-29T16:13:08.471Z,10.02
2022-07-29T16:15:11.581Z,11.35
2022-07-29T16:17:14.913Z,12.25
2022-07-29T16:19:18.155Z,9.32
2022-07-29T16:21:22.900Z,8.20
2022-07-29T16:23:25.635Z,9.52
2022-07-29T16:25:57.570Z,8.45
2022-07-29T16:27:51.085Z,9.85
2022-07-29T16:29:54.912Z,8.25
2022-07-29T16:31:57.700Z,9.40
2022-07-29T16:34:01.675Z,8.32
2022-07-29T16:36:04.588Z,9.25
2022-07-29T16:38:07.226Z,8.70
2022-07-29T16:40:11.822Z,9.00
2022-07-29T16:42:30.922Z,8.80
2022-07-29T16:44:37.363Z,9.35
2022-07-29T16:46:41.518Z,8.80
2022-07-29T16:48:44.214Z,9.18
2022-07-29T16:50:47.990Z,9.65
2022-07-29T16:52:50.561Z,9.10
2022-07-29T16:54:53.178Z,8.80
2022-07-29T16:56:56.299Z,9.75
2022-07-29T16:58:59.065Z,8.35
2022-07-29T17:01:01.754Z,9.82
2022-07-29T17:03:05.693Z,9.73
2022-07-29T17:05:09.357Z,8.88
2022-07-29T17:07:12.111Z,9.95
2022-07-29T17:09:15.405Z,10.00
2022-07-29T17:11:17.998Z,8.75
2022-07-29T17:13:20.673Z,9.48
2022-07-29T17:15:23.324Z,8.60
2022-07-29T17:17:39.211Z,9.02
2022-07-29T17:19:48.629Z,11.20
2022-07-29T17:21:51.242Z,15.70
2022-07-29T17:23:54.630Z,15.23
2022-07-29T17:25:57.152Z,13.80
2022-07-29T17:28:01.139Z,14.65
2022-07-29T17:30:05.935Z,14.02
2022-07-29T17:32:09.593Z,13.32
2022-07-29T17:34:12.977Z,13.57
2022-07-29T17:36:24.656Z,13.10
2022-07-29T17:38:27.283Z,12.15
2022-07-29T17:40:29.963Z,11.73
2022-07-29T17:42:32.618Z,10.93
2022-07-29T17:44:36.312Z,13.52
2022-07-29T17:46:40.531Z,13.77
2022-07-29T17:48:43.661Z,12.90
2022-07-29T17:50:47.383Z,11.30
2022-07-29T17:52:49.925Z,11.60
2022-07-29T17:54:52.519Z,13.50
2022-07-29T17:56:55.424Z,12.98
2022-07-29T17:59:01.303Z,13.27
2022-07-29T18:01:04.233Z,13.13
2022-07-29T18:03:07.351Z,11.77
2022-07-29T18:05:10.286Z,11.90
2022-07-29T18:07:12.995Z,11.90
2022-07-29T18:09:15.718Z,10.43
2022-07-29T18:11:18.572Z,10.70
2022-07-29T18:13:21.259Z,12.48
2022-07-29T18:15:23.893Z,10.27
2022-07-29T18:17:45.955Z,13.20
2022-07-29T18:19:49.084Z,12.52
2022-07-29T18:21:54.438Z,11.88
2022-07-29T18:23:58.505Z,12.88
2022-07-29T18:26:01.043Z,14.48
2022-07-29T18:28:04.218Z,16.27
2022-07-29T18:30:07.734Z,12.05
2022-07-29T18:32:10.408Z,13.65
2022-07-29T18:34:12.992Z,15.27
2022-07-29T18:36:15.850Z,13.75
2022-07-29T18:38:18.678Z,11.32
2022-07-29T18:40:24.040Z,12.05
2022-07-29T18:42:26.748Z,12.25
2022-07-29T18:44:29.293Z,11.55
2022-07-29T18:46:32.398Z,12.98
2022-07-29T18:48:35.723Z,11.63
2022-07-29T18:50:38.397Z,12.75
2022-07-29T18:52:41.103Z,11.65
2022-07-29T18:54:43.762Z,14.15
2022-07-29T18:56:49.012Z,12.50
2022-07-29T18:58:51.657Z,13.10
2022-07-29T19:00:54.356Z,13.82
2022-07-29T19:02:57.462Z,13.93
2022-07-29T19:05:00.221Z,12.90
2022-07-29T19:07:03.645Z,13.48
2022-07-29T19:09:06.491Z,12.85
2022-07-29T19:11:09.143Z,13.18
2022-07-29T19:13:13.360Z,14.15
2022-07-29T19:15:19.981Z,15.07
2022-07-29T19:17:24.079Z,13.43
2022-07-29T19:19:26.707Z,13.63
2022-07-29T19:21:29.386Z,12.88
2022-07-29T19:23:32.130Z,12.73
2022-07-29T19:25:54.798Z,13.30
2022-07-29T19:27:57.410Z,14.13
2022-07-29T19:29:59.964Z,11.98
2022-07-29T19:32:05.221Z,12.88
2022-07-29T19:34:08.283Z,13.02
2022-07-29T19:36:10.889Z,11.80
2022-07-29T19:38:13.953Z,13.57
2022-07-29T19:40:16.735Z,13.45
2022-07-29T19:42:19.316Z,13.98
2022-07-29T19:44:22.195Z,15.07
2022-07-29T19:46:25.465Z,14.98
2022-07-29T19:48:28.117Z,13.40
2022-07-29T19:50:31.318Z,13.30
2022-07-29T19:52:33.943Z,13.02
2022-07-29T19:54:36.560Z,14.13
2022-07-29T19:56:42.078Z,12.90
2022-07-29T19:58:44.974Z,14.02
2022-07-29T20:00:47.940Z,12.40
2022-07-29T20:02:50.906Z,14.52
2022-07-29T20:04:53.685Z,13.15
2022-07-29T20:07:01.733Z,13.85
2022-07-29T20:09:06.242Z,13.75
2022-07-29T20:11:08.865Z,12.13
2022-07-29T20:13:11.506Z,12.85
2022-07-29T20:15:16.593Z,14.73
2022-07-29T20:17:22.423Z,12.43
2022-07-29T20:19:25.089Z,12.75
2022-07-29T20:21:27.681Z,12.93
2022-07-29T20:23:33.326Z,11.90
2022-07-29T20:25:36.932Z,13.18
2022-07-29T20:27:43.199Z,11.75
2022-07-29T20:29:45.789Z,14.00
2022-07-29T20:31:52.232Z,13.15
2022-07-29T20:33:59.531Z,12.77
2022-07-29T20:36:02.043Z,12.13
2022-07-29T20:38:04.666Z,13.32
2022-07-29T20:40:08.521Z,13.55
2022-07-29T20:42:16.586Z,10.63
2022-07-29T20:44:19.925Z,12.63
2022-07-29T20:46:22.594Z,12.18
2022-07-29T20:48:25.204Z,12.82
2022-07-29T20:50:28.807Z,11.73
2022-07-29T20:52:31.589Z,11.82
2022-07-29T20:54:34.633Z,12.40
2022-07-29T20:56:37.302Z,12.77
2022-07-29T20:58:41.059Z,11.60
2022-07-29T21:00:43.865Z,12.40
2022-07-29T21:02:46.701Z,12.07
2022-07-29T21:04:49.419Z,12.90
2022-07-29T21:06:52.012Z,12.07
2022-07-29T21:08:58.003Z,13.13
2022-07-29T21:11:00.670Z,12.00
2022-07-29T21:13:03.424Z,12.57
2022-07-29T21:15:06.780Z,10.82
2022-07-29T21:17:09.294Z,11.82
2022-07-29T21:19:12.892Z,11.90
2022-07-29T21:21:16.603Z,12.02
2022-07-29T21:23:19.165Z,12.38
2022-07-29T21:25:22.915Z,12.07
2022-07-29T21:27:44.049Z,12.60
2022-07-29T21:29:46.602Z,12.63
2022-07-29T21:31:49.183Z,12.55
2022-07-29T21:33:51.809Z,11.57
2022-07-29T21:38:18.447Z,10.25
2022-07-29T21:40:21.432Z,10.63
2022-07-29T21:42:26.474Z,12.82
2022-07-29T21:44:29.013Z,11.63
2022-07-29T21:46:31.583Z,9.93
2022-07-29T21:48:34.154Z,10.70
2022-07-29T21:50:36.761Z,10.70
2022-07-29T21:52:39.437Z,10.18
2022-07-29T21:54:42.646Z,10.40
2022-07-29T21:56:45.323Z,10.80
2022-07-29T21:58:53.901Z,11.43
2022-07-29T22:00:56.417Z,12.05
2022-07-29T22:02:58.964Z,11.32
2022-07-29T22:05:01.621Z,10.00
2022-07-29T22:07:05.657Z,10.18
2022-07-29T22:09:08.166Z,10.52
2022-07-29T22:11:10.723Z,9.93
2022-07-29T22:13:13.280Z,11.07
2022-07-29T22:15:15.863Z,10.60
2022-07-29T22:17:20.085Z,10.60
2022-07-29T22:19:22.703Z,10.68
2022-07-29T22:21:30.560Z,10.65
2022-07-29T22:23:33.064Z,9.85
2022-07-29T22:25:35.796Z,10.48
2022-07-29T22:27:38.911Z,10.73
2022-07-29T22:29:41.518Z,10.40
2022-07-29T22:31:44.918Z,10.38
2022-07-29T22:33:50.955Z,10.48
2022-07-29T22:35:53.559Z,11.30
2022-07-29T22:37:56.118Z,10.85
2022-07-29T22:39:58.709Z,9.65
2022-07-29T22:42:01.566Z,10.75
2022-07-29T22:44:04.368Z,10.95
2022-07-29T22:46:10.977Z,10.00
2022-07-29T22:48:14.456Z,9.60
2022-07-29T22:50:17.481Z,9.82
2022-07-29T22:52:20.046Z,10.82
2022-07-29T22:54:22.809Z,10.73
2022-07-29T22:56:25.502Z,10.20
2022-07-29T22:58:28.085Z,9.80
2022-07-29T23:00:30.734Z,11.10
2022-07-29T23:02:33.336Z,9.65
2022-07-29T23:04:35.926Z,9.65
2022-07-29T23:06:38.548Z,10.93
2022-07-29T23:08:41.502Z,9.20
2022-07-29T23:10:44.191Z,10.40
2022-07-29T23:12:46.951Z,12.10
2022-07-29T23:14:49.451Z,10.73
2022-07-29T23:16:53.345Z,10.93
2022-07-29T23:18:56.043Z,10.35
2022-07-29T23:20:58.596Z,10.98
2022-07-29T23:23:01.145Z,10.27
2022-07-29T23:25:05.104Z,9.23
2022-07-29T23:27:07.807Z,11.10
2022-07-29T23:29:10.550Z,11.02
2022-07-29T23:31:13.780Z,10.63
2022-07-29T23:33:16.406Z,11.68
2022-07-29T23:35:19.110Z,10.95
2022-07-29T23:37:21.913Z,11.02
2022-07-29T23:39:24.529Z,10.85
2022-07-29T23:41:31.068Z,9.95
2022-07-29T23:43:33.576Z,10.85
2022-07-29T23:45:42.559Z,10.98
2022-07-29T23:47:47.619Z,10.57
2022-07-29T23:49:50.359Z,11.70
2022-07-29T23:51:52.945Z,11.52
2022-07-29T23:53:55.462Z,12.07
2022-07-29T23:55:58.143Z,11.48
2022-07-29T23:58:00.858Z,12.18
